createdAt,value
2019-01-17T00:00:34.918Z,16.73
2019-01-17T00:05:49.695Z,17.37
2019-01-17T00:11:16.001Z,17.00
2019-01-17T00:16:51.304Z,16.13
2019-01-17T00:22:15.309Z,20.73
2019-01-17T00:27:57.012Z,18.17
2019-01-17T00:33:19.548Z,23.50
2019-01-17T00:38:36.124Z,20.43
2019-01-17T00:43:57.945Z,24.10
2019-01-17T00:49:11.782Z,19.67
2019-01-17T00:54:41.038Z,20.60
2019-01-17T01:00:04.518Z,18.07
2019-01-17T01:05:28.108Z,22.83
2019-01-17T01:10:54.409Z,20.77
2019-01-17T01:16:29.518Z,20.93
2019-01-17T01:22:10.940Z,18.90
2019-01-17T01:27:41.493Z,17.63
2019-01-17T01:33:09.813Z,22.70
2019-01-17T01:38:31.660Z,22.37
2019-01-17T01:43:47.367Z,23.43
2019-01-17T01:49:12.231Z,21.33
2019-01-17T01:54:22.006Z,14.20
2019-01-17T01:59:23.149Z,15.03
2019-01-17T02:04:27.674Z,13.20
2019-01-17T02:09:32.311Z,15.17
2019-01-17T02:14:37.158Z,15.53
2019-01-17T02:19:41.934Z,18.47
2019-01-17T02:24:46.557Z,11.13
2019-01-17T02:29:51.145Z,8.10
2019-01-17T02:34:55.703Z,7.73
2019-01-17T02:40:00.268Z,11.20
2019-01-17T02:45:05.246Z,15.57
2019-01-17T02:50:10.519Z,15.90
2019-01-17T02:55:15.092Z,14.13
2019-01-17T03:00:19.685Z,21.10
2019-01-17T03:05:24.280Z,12.93
2019-01-17T03:10:28.957Z,7.87
2019-01-17T03:15:33.498Z,9.50
2019-01-17T03:20:38.066Z,9.87
2019-01-17T03:25:42.613Z,18.40
2019-01-17T03:30:47.135Z,18.10
2019-01-17T03:35:51.918Z,17.43
2019-01-17T03:40:56.529Z,16.50
2019-01-17T03:46:01.038Z,10.40
2019-01-17T03:51:05.759Z,15.30
2019-01-17T03:56:10.377Z,17.73
2019-01-17T04:01:14.969Z,16.23
2019-01-17T04:06:19.458Z,16.60
2019-01-17T04:11:24.042Z,17.57
2019-01-17T04:16:28.653Z,21.27
2019-01-17T04:21:33.161Z,20.43
2019-01-17T04:26:37.694Z,16.07
2019-01-17T04:31:42.273Z,17.60
2019-01-17T04:36:46.783Z,16.43
2019-01-17T04:41:51.859Z,16.40
2019-01-17T04:46:56.454Z,19.00
2019-01-17T04:52:01.042Z,18.80
2019-01-17T04:57:05.700Z,15.37
2019-01-17T05:02:10.251Z,13.73
2019-01-17T05:07:14.846Z,19.47
2019-01-17T05:12:19.490Z,17.02
2019-01-17T05:17:24.147Z,12.67
2019-01-17T05:22:28.748Z,14.77
2019-01-17T05:27:33.328Z,11.43
2019-01-17T05:32:37.918Z,15.93
2019-01-17T05:37:42.917Z,12.73
2019-01-17T05:42:47.422Z,10.03
2019-01-17T05:47:51.995Z,9.93
2019-01-17T05:52:56.567Z,14.23
2019-01-17T05:58:01.050Z,15.67
2019-01-17T06:03:05.697Z,10.60
2019-01-17T06:08:10.262Z,11.57
2019-01-17T06:13:15.047Z,15.00
2019-01-17T06:18:19.661Z,11.00
2019-01-17T06:23:24.244Z,12.60
2019-01-17T06:28:28.860Z,16.63
2019-01-17T06:33:33.456Z,12.70
2019-01-17T06:38:37.941Z,9.87
2019-01-17T06:43:42.512Z,11.97
2019-01-17T06:48:47.090Z,11.13
2019-01-17T06:53:51.667Z,7.87
2019-01-17T06:58:56.255Z,7.27
2019-01-17T07:04:00.874Z,15.57
2019-01-17T07:09:08.634Z,9.10
2019-01-17T07:14:13.268Z,12.03
2019-01-17T07:19:17.826Z,11.17
2019-01-17T07:24:22.324Z,7.10
2019-01-17T07:29:26.888Z,8.77
2019-01-17T07:34:31.426Z,7.70
2019-01-17T07:39:35.924Z,5.60
2019-01-17T07:44:40.436Z,7.53
2019-01-17T07:49:45.066Z,8.78
2019-01-17T07:54:51.365Z,7.87
2019-01-17T07:59:56.010Z,7.60
2019-01-17T08:05:00.990Z,7.27
2019-01-17T08:10:07.343Z,7.03
2019-01-17T08:15:12.506Z,6.73
2019-01-17T08:20:22.331Z,5.67
2019-01-17T08:25:26.849Z,5.50
2019-01-17T08:30:31.451Z,30.85
2019-01-17T08:35:35.995Z,12.93
2019-01-17T08:40:40.522Z,7.27
2019-01-17T08:45:45.078Z,6.22
2019-01-17T08:50:49.916Z,5.33
2019-01-17T08:56:00.603Z,8.23
2019-01-17T09:01:00.704Z,5.67
2019-01-17T09:06:05.498Z,5.83
2019-01-17T09:11:10.069Z,3.53
2019-01-17T09:16:14.692Z,5.70
2019-01-17T09:21:19.284Z,4.97
2019-01-17T09:26:23.826Z,6.93
2019-01-17T09:31:29.466Z,2.63
2019-01-17T09:36:34.086Z,6.23
2019-01-17T09:41:38.754Z,3.10
2019-01-17T09:46:43.307Z,2.97
2019-01-17T09:51:47.937Z,4.37
2019-01-17T09:56:52.555Z,3.37
2019-01-17T10:01:57.124Z,6.77
2019-01-17T10:07:01.731Z,3.23
2019-01-17T10:12:06.337Z,7.00
2019-01-17T10:17:39.486Z,2.23
2019-01-17T10:23:32.617Z,4.13
2019-01-17T10:29:07.875Z,1.10
2019-01-17T10:34:59.316Z,6.10
2019-01-17T10:41:14.974Z,9.83
2019-01-17T10:46:59.040Z,4.10
2019-01-17T10:52:51.504Z,6.70
2019-01-17T10:58:18.241Z,3.67
2019-01-17T11:03:54.799Z,4.47
2019-01-17T11:09:29.158Z,12.77
2019-01-17T11:14:55.455Z,3.03
2019-01-17T11:20:28.407Z,2.63
2019-01-17T11:25:48.875Z,11.53
2019-01-17T11:31:25.162Z,8.23
2019-01-17T11:37:16.389Z,3.20
2019-01-17T11:43:07.869Z,6.87
2019-01-17T11:48:31.935Z,4.83
2019-01-17T11:54:17.273Z,3.20
2019-01-17T12:00:06.052Z,7.77
2019-01-17T12:05:10.627Z,4.70
2019-01-17T12:10:15.248Z,5.87
2019-01-17T12:15:19.809Z,5.87
2019-01-17T12:20:24.374Z,6.30
2019-01-17T12:25:28.962Z,9.17
2019-01-17T12:30:33.643Z,2.40
2019-01-17T12:35:38.252Z,8.40
2019-01-17T12:40:42.870Z,7.03
2019-01-17T12:45:47.435Z,10.50
2019-01-17T12:50:52.033Z,7.33
2019-01-17T12:55:56.615Z,9.13
2019-01-17T13:01:01.197Z,8.43
2019-01-17T13:06:05.929Z,6.43
2019-01-17T13:11:10.522Z,10.20
2019-01-17T13:16:15.173Z,11.60
2019-01-17T13:21:19.805Z,9.27
2019-01-17T13:26:25.569Z,9.63
2019-01-17T13:31:30.197Z,13.10
2019-01-17T13:36:40.323Z,8.93
2019-01-17T13:41:41.218Z,8.63
2019-01-17T13:46:45.848Z,7.63
2019-01-17T13:51:50.460Z,9.60
2019-01-17T13:56:55.966Z,9.03
2019-01-17T14:02:00.554Z,6.00
2019-01-17T14:07:05.181Z,10.03
2019-01-17T14:12:09.749Z,9.80
2019-01-17T14:17:14.258Z,10.00
2019-01-17T14:22:18.873Z,11.60
2019-01-17T14:27:23.391Z,13.20
2019-01-17T14:32:28.003Z,8.33
2019-01-17T14:37:32.612Z,11.00
2019-01-17T14:42:37.389Z,7.13
2019-01-17T14:47:42.350Z,10.83
2019-01-17T14:52:47.493Z,10.97
2019-01-17T14:57:52.168Z,10.77
2019-01-17T15:02:56.790Z,12.93
2019-01-17T15:08:01.687Z,4.60
2019-01-17T15:13:06.430Z,8.33
2019-01-17T15:18:11.035Z,9.33
2019-01-17T15:23:15.601Z,4.13
2019-01-17T15:28:20.106Z,5.77
2019-01-17T15:33:24.627Z,7.23
2019-01-17T15:38:29.131Z,9.13
2019-01-17T15:43:33.706Z,6.80
2019-01-17T15:48:38.202Z,5.23
2019-01-17T15:53:42.810Z,11.50
2019-01-17T15:58:47.346Z,8.90
2019-01-17T16:03:51.928Z,8.33
2019-01-17T16:08:56.469Z,13.13
2019-01-17T16:14:01.101Z,5.87
2019-01-17T16:19:05.729Z,9.37
2019-01-17T16:24:10.327Z,7.80
2019-01-17T16:29:15.007Z,6.13
2019-01-17T16:34:19.756Z,13.40
2019-01-17T16:39:24.333Z,15.20
2019-01-17T16:44:28.922Z,18.63
2019-01-17T16:49:33.549Z,11.17
2019-01-17T16:54:38.157Z,9.50
2019-01-17T16:59:42.741Z,11.43
2019-01-17T17:04:47.274Z,18.35
2019-01-17T17:09:51.963Z,13.15
2019-01-17T17:14:56.559Z,24.47
2019-01-17T17:20:01.181Z,15.07
2019-01-17T17:25:06.463Z,10.43
2019-01-17T17:30:16.674Z,15.58
2019-01-17T17:35:21.339Z,19.33
2019-01-17T17:40:28.153Z,15.53
2019-01-17T17:45:34.231Z,12.57
2019-01-17T17:50:38.826Z,18.53
2019-01-17T17:55:43.515Z,28.33
2019-01-17T18:01:00.402Z,21.33
2019-01-17T18:06:05.053Z,18.87
2019-01-17T18:11:09.662Z,21.87
2019-01-17T18:16:14.308Z,20.05
2019-01-17T18:21:18.908Z,14.07
2019-01-17T18:26:23.524Z,15.45
2019-01-17T18:31:28.121Z,16.27
2019-01-17T18:36:32.789Z,18.27
2019-01-17T18:41:37.395Z,13.00
2019-01-17T18:46:41.959Z,10.87
2019-01-17T18:51:46.575Z,10.63
2019-01-17T18:56:51.182Z,15.97
2019-01-17T19:01:55.925Z,22.07
2019-01-17T19:07:00.582Z,29.20
2019-01-17T19:12:05.285Z,18.45
2019-01-17T19:17:09.795Z,7.10
2019-01-17T19:22:14.434Z,16.40
2019-01-17T19:27:18.948Z,16.37
2019-01-17T19:32:23.561Z,13.40
2019-01-17T19:37:28.214Z,21.43
2019-01-17T19:42:32.861Z,15.77
2019-01-17T19:47:37.443Z,21.30
2019-01-17T19:52:42.150Z,17.43
2019-01-17T19:57:46.782Z,22.03
2019-01-17T20:02:51.613Z,17.53
2019-01-17T20:07:56.234Z,15.10
2019-01-17T20:13:00.929Z,16.43
2019-01-17T20:18:05.953Z,14.23
2019-01-17T20:23:10.483Z,22.20
2019-01-17T20:28:15.027Z,12.67
2019-01-17T20:33:19.543Z,23.77
2019-01-17T20:38:24.235Z,18.05
2019-01-17T20:43:28.814Z,21.87
2019-01-17T20:48:33.404Z,26.33
2019-01-17T20:53:38.002Z,20.17
2019-01-17T20:58:42.675Z,20.17
2019-01-17T21:03:47.377Z,25.73
2019-01-17T21:08:51.984Z,14.90
2019-01-17T21:13:56.671Z,23.53
2019-01-17T21:19:01.313Z,23.37
2019-01-17T21:24:06.223Z,21.13
2019-01-17T21:29:10.949Z,28.07
2019-01-17T21:34:15.601Z,22.07
2019-01-17T21:39:20.251Z,25.73
2019-01-17T21:44:24.840Z,31.63
2019-01-17T21:49:29.511Z,28.00
2019-01-17T21:54:34.079Z,23.33
2019-01-17T21:59:38.713Z,22.87
2019-01-17T22:04:43.345Z,22.00
2019-01-17T22:09:47.986Z,27.47
2019-01-17T22:14:52.660Z,29.93
2019-01-17T22:19:57.263Z,27.20
2019-01-17T22:25:02.741Z,20.87
2019-01-17T22:30:11.650Z,19.57
2019-01-17T22:35:16.685Z,21.93
2019-01-17T22:40:21.336Z,22.37
2019-01-17T22:45:28.044Z,18.60
2019-01-17T22:50:32.707Z,22.20
2019-01-17T22:55:37.282Z,20.23
2019-01-17T23:00:54.470Z,18.23
2019-01-17T23:05:58.983Z,20.13
2019-01-17T23:11:03.690Z,14.47
2019-01-17T23:16:08.467Z,15.73
2019-01-17T23:21:13.054Z,20.97
2019-01-17T23:26:17.676Z,18.60
2019-01-17T23:31:22.211Z,20.13
2019-01-17T23:36:26.748Z,19.53
2019-01-17T23:41:31.389Z,20.23
2019-01-17T23:46:35.960Z,17.97
2019-01-17T23:51:40.480Z,18.83
2019-01-17T23:56:45.074Z,14.20
